createdAt,value
2019-03-24T00:01:03.345Z,10.30
2019-03-24T00:02:11.887Z,10.30
2019-03-24T00:03:18.532Z,10.20
2019-03-24T00:04:25.236Z,10.30
2019-03-24T00:05:31.904Z,10.20
2019-03-24T00:06:38.671Z,10.20
2019-03-24T00:07:45.284Z,10.20
2019-03-24T00:08:51.585Z,10.10
2019-03-24T00:09:58.328Z,10.10
2019-03-24T00:11:05.262Z,10.10
2019-03-24T00:12:11.798Z,10.10
2019-03-24T00:13:18.337Z,10.10
2019-03-24T00:14:24.965Z,10.10
2019-03-24T00:15:31.650Z,10.00
2019-03-24T00:16:38.258Z,10.00
2019-03-24T00:17:44.934Z,10.00
2019-03-24T00:18:51.485Z,10.00
2019-03-24T00:19:58.362Z,9.90
2019-03-24T00:21:04.617Z,9.90
2019-03-24T00:22:11.367Z,9.90
2019-03-24T00:23:17.916Z,9.90
2019-03-24T00:24:24.405Z,9.80
2019-03-24T00:25:31.086Z,9.80
2019-03-24T00:26:37.719Z,9.80
2019-03-24T00:27:44.236Z,9.80
2019-03-24T00:28:50.796Z,9.70
2019-03-24T00:29:57.969Z,9.70
2019-03-24T00:31:04.769Z,9.70
2019-03-24T00:32:11.486Z,9.70
2019-03-24T00:33:17.770Z,9.70
2019-03-24T00:34:24.400Z,9.70
2019-03-24T00:35:31.015Z,9.70
2019-03-24T00:36:37.514Z,9.70
2019-03-24T00:37:44.046Z,9.50
2019-03-24T00:38:50.605Z,9.60
2019-03-24T00:39:57.678Z,9.60
2019-03-24T00:41:04.365Z,9.60
2019-03-24T00:42:11.025Z,9.60
2019-03-24T00:43:18.879Z,9.60
2019-03-24T00:44:25.154Z,9.50
2019-03-24T00:45:36.699Z,9.50
2019-03-24T00:46:40.157Z,9.50
2019-03-24T00:47:46.786Z,9.50
2019-03-24T00:48:53.354Z,9.50
2019-03-24T00:50:00.347Z,9.50
2019-03-24T00:51:07.046Z,9.50
2019-03-24T00:52:13.681Z,9.40
2019-03-24T00:53:20.268Z,9.40
2019-03-24T00:54:27.138Z,9.40
2019-03-24T00:55:33.726Z,9.40
2019-03-24T00:56:41.104Z,9.40
2019-03-24T00:57:47.683Z,9.40
2019-03-24T00:58:54.412Z,9.30
2019-03-24T01:00:01.313Z,9.30
2019-03-24T01:01:07.960Z,9.30
2019-03-24T01:02:14.583Z,9.20
2019-03-24T01:03:21.171Z,9.20
2019-03-24T01:04:27.832Z,9.20
2019-03-24T01:05:34.417Z,9.20
2019-03-24T01:06:41.393Z,9.20
2019-03-24T01:07:47.879Z,9.20
2019-03-24T01:08:54.244Z,9.20
2019-03-24T01:10:01.147Z,9.20
2019-03-24T01:11:07.702Z,9.10
2019-03-24T01:12:14.394Z,9.10
2019-03-24T01:13:21.124Z,9.10
2019-03-24T01:14:29.137Z,9.00
2019-03-24T01:15:47.011Z,8.90
2019-03-24T01:16:44.440Z,8.90
2019-03-24T01:17:51.089Z,9.00
2019-03-24T01:18:57.746Z,9.00
2019-03-24T01:20:04.278Z,9.00
2019-03-24T01:21:10.855Z,9.00
2019-03-24T01:22:17.652Z,9.00
2019-03-24T01:23:24.276Z,8.90
2019-03-24T01:24:30.915Z,8.90
2019-03-24T01:25:37.395Z,8.80
2019-03-24T01:26:43.984Z,8.90
2019-03-24T01:27:50.673Z,8.90
2019-03-24T01:28:57.273Z,8.90
2019-03-24T01:30:04.210Z,8.90
2019-03-24T01:31:10.868Z,8.90
2019-03-24T01:32:17.496Z,8.80
2019-03-24T01:33:24.228Z,8.80
2019-03-24T01:34:30.636Z,8.80
2019-03-24T01:35:38.246Z,8.80
2019-03-24T01:36:44.765Z,8.80
2019-03-24T01:37:51.445Z,8.70
2019-03-24T01:38:58.273Z,8.70
2019-03-24T01:40:05.078Z,8.80
2019-03-24T01:41:11.678Z,8.80
2019-03-24T01:42:18.248Z,8.70
2019-03-24T01:43:24.555Z,8.70
2019-03-24T01:44:31.126Z,8.70
2019-03-24T01:45:37.732Z,8.60
2019-03-24T01:46:44.485Z,8.60
2019-03-24T01:47:50.999Z,8.60
2019-03-24T01:48:57.617Z,8.60
2019-03-24T01:50:04.404Z,8.70
2019-03-24T01:51:10.945Z,8.70
2019-03-24T01:52:17.701Z,8.70
2019-03-24T01:53:24.268Z,8.60
2019-03-24T01:54:31.074Z,8.70
2019-03-24T01:55:37.401Z,8.70
2019-03-24T01:56:44.102Z,8.70
2019-03-24T01:57:50.693Z,8.60
2019-03-24T01:58:57.196Z,8.60
2019-03-24T02:00:04.073Z,8.50
2019-03-24T02:01:10.685Z,8.50
2019-03-24T02:02:17.303Z,8.50
2019-03-24T02:03:24.265Z,8.40
2019-03-24T02:04:30.813Z,8.40
2019-03-24T02:05:37.506Z,8.30
2019-03-24T02:06:44.219Z,8.30
2019-03-24T02:07:50.716Z,8.30
2019-03-24T02:08:57.437Z,8.30
2019-03-24T02:10:04.176Z,8.20
2019-03-24T02:11:11.756Z,8.20
2019-03-24T02:12:18.449Z,8.30
2019-03-24T02:13:24.914Z,8.20
2019-03-24T02:14:31.542Z,8.20
2019-03-24T02:15:38.177Z,8.10
2019-03-24T02:16:44.876Z,8.10
2019-03-24T02:17:51.362Z,8.10
2019-03-24T02:18:57.731Z,8.10
2019-03-24T02:20:04.333Z,8.10
2019-03-24T02:21:10.846Z,8.10
2019-03-24T02:22:17.432Z,8.10
2019-03-24T02:23:23.968Z,8.10
2019-03-24T02:24:30.656Z,8.10
2019-03-24T02:25:37.357Z,8.00
2019-03-24T02:26:43.947Z,7.90
2019-03-24T02:27:50.535Z,7.80
2019-03-24T02:28:57.087Z,7.70
2019-03-24T02:30:03.657Z,7.70
2019-03-24T02:31:10.330Z,7.70
2019-03-24T02:32:16.876Z,7.70
2019-03-24T02:33:23.719Z,7.70
2019-03-24T02:34:30.589Z,7.60
2019-03-24T02:35:37.062Z,7.70
2019-03-24T02:36:43.745Z,7.70
2019-03-24T02:37:50.315Z,7.70
2019-03-24T02:38:56.772Z,7.70
2019-03-24T02:40:04.465Z,7.60
2019-03-24T02:41:12.277Z,7.60
2019-03-24T02:42:20.175Z,7.60
2019-03-24T02:43:26.498Z,7.40
2019-03-24T02:44:33.134Z,7.40
2019-03-24T02:45:39.786Z,7.30
2019-03-24T02:46:46.646Z,7.40
2019-03-24T02:47:53.213Z,7.40
2019-03-24T02:49:00.728Z,7.40
2019-03-24T02:50:07.505Z,7.30
2019-03-24T02:51:14.102Z,7.30
2019-03-24T02:52:20.595Z,7.40
2019-03-24T02:53:27.214Z,7.30
2019-03-24T02:54:33.569Z,7.30
2019-03-24T02:55:40.230Z,7.20
2019-03-24T02:56:46.746Z,7.20
2019-03-24T02:57:53.370Z,7.20
2019-03-24T02:58:59.970Z,7.10
2019-03-24T03:00:07.906Z,7.10
2019-03-24T03:01:14.367Z,7.10
2019-03-24T03:02:21.456Z,7.10
2019-03-24T03:03:28.139Z,7.10
2019-03-24T03:04:34.804Z,7.10
2019-03-24T03:05:41.742Z,7.10
2019-03-24T03:06:48.326Z,7.00
2019-03-24T03:07:55.008Z,7.00
2019-03-24T03:09:01.537Z,6.90
2019-03-24T03:10:11.101Z,6.90
2019-03-24T03:11:18.262Z,6.90
2019-03-24T03:12:25.404Z,6.90
2019-03-24T03:13:32.051Z,6.90
2019-03-24T03:14:38.545Z,7.00
2019-03-24T03:15:45.043Z,6.90
2019-03-24T03:16:51.659Z,6.90
2019-03-24T03:17:58.277Z,6.90
2019-03-24T03:19:04.867Z,6.90
2019-03-24T03:20:11.868Z,6.80
2019-03-24T03:21:18.478Z,6.80
2019-03-24T03:22:25.012Z,6.90
2019-03-24T03:23:31.756Z,6.80
2019-03-24T03:24:39.353Z,6.80
2019-03-24T03:25:45.889Z,6.80
2019-03-24T03:26:52.410Z,6.80
2019-03-24T03:27:59.417Z,6.80
2019-03-24T03:29:06.015Z,6.80
2019-03-24T03:30:13.018Z,6.80
2019-03-24T03:31:19.608Z,6.80
2019-03-24T03:32:26.765Z,6.80
2019-03-24T03:33:33.342Z,6.80
2019-03-24T03:34:39.895Z,6.70
2019-03-24T03:35:46.349Z,6.70
2019-03-24T03:36:52.944Z,6.70
2019-03-24T03:37:59.617Z,6.60
2019-03-24T03:39:07.641Z,6.50
2019-03-24T03:40:14.596Z,6.60
2019-03-24T03:41:20.950Z,6.50
2019-03-24T03:42:27.616Z,6.50
2019-03-24T03:43:34.171Z,6.60
2019-03-24T03:44:40.712Z,6.50
2019-03-24T03:45:47.178Z,6.50
2019-03-24T03:46:53.810Z,6.50
2019-03-24T03:48:00.494Z,6.50
2019-03-24T03:49:07.107Z,6.50
2019-03-24T03:50:13.675Z,6.50
2019-03-24T03:51:20.281Z,6.50
2019-03-24T03:52:26.818Z,6.40
2019-03-24T03:53:33.097Z,6.50
2019-03-24T03:54:39.460Z,6.30
2019-03-24T03:55:46.184Z,6.40
2019-03-24T03:56:53.761Z,6.40
2019-03-24T03:58:00.339Z,6.40
2019-03-24T03:59:06.994Z,6.30
2019-03-24T04:00:15.427Z,6.30
2019-03-24T04:01:22.030Z,6.30
2019-03-24T04:02:28.655Z,6.20
2019-03-24T04:03:35.282Z,6.30
2019-03-24T04:04:41.799Z,6.20
2019-03-24T04:05:48.150Z,6.20
2019-03-24T04:06:54.814Z,6.20
2019-03-24T04:08:01.760Z,6.20
2019-03-24T04:09:09.309Z,6.20
2019-03-24T04:10:15.755Z,6.10
2019-03-24T04:11:22.493Z,6.00
2019-03-24T04:12:29.113Z,6.00
2019-03-24T04:13:35.637Z,6.10
2019-03-24T04:14:42.094Z,6.10
2019-03-24T04:15:48.869Z,6.10
2019-03-24T04:17:06.134Z,6.10
2019-03-24T04:18:03.584Z,6.00
2019-03-24T04:19:10.229Z,5.90
2019-03-24T04:20:17.776Z,6.00
2019-03-24T04:21:24.535Z,5.90
2019-03-24T04:22:31.188Z,5.90
2019-03-24T04:23:37.802Z,6.00
2019-03-24T04:24:44.438Z,6.00
2019-03-24T04:25:53.944Z,5.90
2019-03-24T04:27:00.413Z,5.90
2019-03-24T04:28:06.975Z,5.80
2019-03-24T04:29:13.531Z,5.80
2019-03-24T04:30:20.008Z,5.90
2019-03-24T04:31:26.695Z,5.90
2019-03-24T04:32:33.364Z,5.90
2019-03-24T04:33:40.078Z,6.00
2019-03-24T04:34:46.457Z,6.00
2019-03-24T04:35:52.965Z,6.00
2019-03-24T04:36:59.475Z,6.00
2019-03-24T04:38:06.124Z,6.00
2019-03-24T04:39:12.747Z,5.90
2019-03-24T04:40:19.016Z,5.80
2019-03-24T04:41:28.281Z,5.80
2019-03-24T04:42:34.720Z,5.80
2019-03-24T04:43:43.593Z,5.80
2019-03-24T04:44:50.321Z,5.90
2019-03-24T04:45:58.076Z,5.80
2019-03-24T04:47:04.774Z,5.80
2019-03-24T04:48:11.634Z,5.90
2019-03-24T04:49:35.096Z,5.70
2019-03-24T04:50:41.954Z,5.70
2019-03-24T04:51:48.542Z,5.80
2019-03-24T04:52:55.082Z,5.80
2019-03-24T04:54:01.679Z,5.80
2019-03-24T04:55:08.725Z,5.80
2019-03-24T04:56:15.347Z,5.80
2019-03-24T04:57:22.040Z,5.70
2019-03-24T04:58:28.594Z,5.70
2019-03-24T04:59:35.248Z,5.70
2019-03-24T05:00:41.946Z,5.50
2019-03-24T05:01:48.606Z,5.50
2019-03-24T05:02:55.143Z,5.60
2019-03-24T05:04:01.632Z,5.40
2019-03-24T05:05:08.515Z,5.50
2019-03-24T05:06:15.903Z,5.50
2019-03-24T05:07:22.816Z,5.30
2019-03-24T05:08:29.585Z,5.40
2019-03-24T05:09:36.548Z,5.30
2019-03-24T05:10:43.242Z,5.20
2019-03-24T05:11:49.575Z,5.30
2019-03-24T05:12:56.206Z,5.40
2019-03-24T05:14:02.868Z,5.40
2019-03-24T05:15:09.574Z,5.40
2019-03-24T05:16:16.170Z,5.30
2019-03-24T05:17:27.046Z,5.20
2019-03-24T05:18:30.906Z,5.10
2019-03-24T05:19:37.901Z,5.00
2019-03-24T05:20:44.373Z,5.00
2019-03-24T05:21:51.017Z,5.00
2019-03-24T05:22:57.582Z,4.80
2019-03-24T05:24:04.230Z,4.90
2019-03-24T05:25:10.932Z,4.80
2019-03-24T05:26:17.527Z,4.80
2019-03-24T05:27:24.258Z,4.90
2019-03-24T05:28:31.127Z,4.90
2019-03-24T05:29:37.656Z,5.00
2019-03-24T05:30:44.288Z,5.10
2019-03-24T05:31:50.976Z,5.20
2019-03-24T05:32:57.626Z,5.20
2019-03-24T05:34:04.275Z,5.30
2019-03-24T05:35:10.913Z,5.30
2019-03-24T05:36:17.626Z,5.30
2019-03-24T05:37:23.972Z,5.30
2019-03-24T05:38:30.397Z,5.30
2019-03-24T05:39:37.078Z,5.30
2019-03-24T05:40:43.867Z,5.30
2019-03-24T05:41:50.576Z,5.30
2019-03-24T05:42:57.386Z,5.20
2019-03-24T05:44:04.215Z,5.20
2019-03-24T05:45:10.984Z,5.20
2019-03-24T05:46:17.608Z,5.20
2019-03-24T05:47:24.919Z,5.20
2019-03-24T05:48:31.294Z,5.30
2019-03-24T05:49:37.835Z,5.30
2019-03-24T05:50:44.902Z,5.30
2019-03-24T05:51:51.876Z,5.40
2019-03-24T05:52:58.428Z,5.40
2019-03-24T05:54:05.202Z,5.40
2019-03-24T05:55:12.010Z,5.50
2019-03-24T05:56:19.678Z,5.50
2019-03-24T05:57:26.537Z,5.60
2019-03-24T05:58:33.112Z,5.60
2019-03-24T05:59:39.937Z,5.60
2019-03-24T06:00:46.627Z,5.60
2019-03-24T06:01:53.214Z,5.60
2019-03-24T06:02:59.926Z,5.60
2019-03-24T06:04:06.505Z,5.60
2019-03-24T06:05:13.188Z,5.80
2019-03-24T06:06:19.730Z,5.90
2019-03-24T06:07:26.284Z,5.90
2019-03-24T06:08:32.923Z,5.90
2019-03-24T06:09:39.572Z,5.90
2019-03-24T06:10:46.611Z,5.90
2019-03-24T06:11:53.328Z,6.00
2019-03-24T06:12:59.993Z,6.00
2019-03-24T06:14:06.516Z,5.90
2019-03-24T06:15:13.299Z,6.00
2019-03-24T06:16:20.023Z,6.10
2019-03-24T06:17:26.612Z,6.10
2019-03-24T06:18:33.167Z,6.10
2019-03-24T06:19:39.896Z,6.10
2019-03-24T06:20:46.435Z,6.10
2019-03-24T06:21:54.061Z,6.00
2019-03-24T06:23:00.993Z,6.10
2019-03-24T06:24:07.686Z,6.10
2019-03-24T06:25:14.518Z,6.00
2019-03-24T06:26:21.037Z,6.00
2019-03-24T06:27:27.783Z,5.90
2019-03-24T06:28:34.424Z,6.00
2019-03-24T06:29:40.957Z,5.90
2019-03-24T06:30:47.671Z,6.00
2019-03-24T06:31:54.381Z,6.10
2019-03-24T06:33:01.004Z,6.20
2019-03-24T06:34:07.647Z,6.30
2019-03-24T06:35:14.484Z,6.40
2019-03-24T06:36:21.239Z,6.50
2019-03-24T06:37:28.075Z,6.50
2019-03-24T06:38:34.595Z,6.50
2019-03-24T06:39:41.446Z,6.50
2019-03-24T06:40:48.273Z,6.60
2019-03-24T06:41:54.856Z,6.60
2019-03-24T06:43:01.450Z,6.70
2019-03-24T06:44:08.126Z,6.70
2019-03-24T06:45:14.888Z,6.70
2019-03-24T06:46:21.336Z,6.70
2019-03-24T06:47:28.084Z,6.70
2019-03-24T06:48:34.355Z,6.70
2019-03-24T06:49:41.191Z,6.80
2019-03-24T06:50:47.836Z,6.80
2019-03-24T06:51:54.372Z,6.80
2019-03-24T06:53:01.075Z,6.80
2019-03-24T06:54:07.581Z,6.90
2019-03-24T06:55:15.407Z,6.90
2019-03-24T06:56:22.120Z,6.90
2019-03-24T06:57:28.906Z,7.00
2019-03-24T06:58:35.501Z,7.00
2019-03-24T06:59:42.963Z,7.10
2019-03-24T07:00:50.740Z,7.10
2019-03-24T07:01:57.452Z,7.10
2019-03-24T07:03:03.994Z,7.20
2019-03-24T07:04:10.527Z,7.30
2019-03-24T07:05:17.067Z,7.40
2019-03-24T07:06:23.723Z,7.50
2019-03-24T07:07:31.536Z,7.40
2019-03-24T07:08:38.078Z,7.50
2019-03-24T07:09:44.545Z,7.50
2019-03-24T07:10:50.864Z,7.50
2019-03-24T07:12:00.096Z,7.50
2019-03-24T07:13:06.537Z,7.60
2019-03-24T07:14:13.129Z,7.60
2019-03-24T07:15:19.979Z,7.60
2019-03-24T07:16:26.566Z,7.60
2019-03-24T07:17:33.203Z,7.60
2019-03-24T07:18:40.142Z,7.60
2019-03-24T07:19:46.654Z,7.50
2019-03-24T07:20:53.238Z,7.50
2019-03-24T07:22:00.519Z,7.60
2019-03-24T07:23:07.057Z,7.60
2019-03-24T07:24:13.606Z,7.60
2019-03-24T07:25:20.388Z,7.50
2019-03-24T07:26:27.708Z,7.40
2019-03-24T07:27:34.403Z,7.60
2019-03-24T07:28:41.056Z,7.70
2019-03-24T07:29:47.635Z,7.80
2019-03-24T07:30:54.499Z,7.80
2019-03-24T07:32:01.110Z,7.90
2019-03-24T07:33:07.504Z,8.00
2019-03-24T07:34:13.739Z,8.00
2019-03-24T07:35:20.419Z,7.90
2019-03-24T07:36:27.105Z,7.90
2019-03-24T07:37:33.826Z,8.00
2019-03-24T07:38:40.695Z,8.10
2019-03-24T07:39:47.357Z,8.10
2019-03-24T07:40:53.799Z,8.10
2019-03-24T07:42:00.526Z,8.10
2019-03-24T07:43:07.150Z,8.00
2019-03-24T07:44:13.634Z,8.00
2019-03-24T07:45:20.318Z,8.00
2019-03-24T07:46:26.968Z,8.10
2019-03-24T07:47:33.575Z,8.00
2019-03-24T07:48:40.244Z,8.00
2019-03-24T07:49:46.867Z,8.10
2019-03-24T07:50:54.569Z,8.10
2019-03-24T07:52:01.381Z,8.10
2019-03-24T07:53:07.844Z,8.30
2019-03-24T07:54:14.441Z,8.30
2019-03-24T07:55:21.096Z,8.40
2019-03-24T07:56:27.634Z,8.50
2019-03-24T07:57:34.090Z,8.50
2019-03-24T07:58:40.556Z,8.40
2019-03-24T07:59:47.318Z,8.50
2019-03-24T08:00:53.951Z,8.50
2019-03-24T08:02:00.739Z,8.50
2019-03-24T08:03:07.449Z,8.50
2019-03-24T08:04:14.116Z,8.50
2019-03-24T08:05:20.711Z,8.60
2019-03-24T08:06:27.326Z,8.60
2019-03-24T08:07:33.932Z,8.60
2019-03-24T08:08:44.161Z,8.60
2019-03-24T08:09:48.715Z,8.50
2019-03-24T08:10:55.541Z,8.40
2019-03-24T08:12:02.063Z,8.50
2019-03-24T08:13:11.813Z,8.60
2019-03-24T08:14:18.706Z,8.70
2019-03-24T08:15:25.284Z,8.70
2019-03-24T08:16:31.958Z,8.70
2019-03-24T08:17:38.666Z,8.80
2019-03-24T08:18:45.479Z,8.70
2019-03-24T08:19:51.949Z,8.70
2019-03-24T08:20:58.602Z,8.80
2019-03-24T08:22:05.229Z,8.90
2019-03-24T08:23:11.747Z,9.00
2019-03-24T08:24:18.344Z,9.10
2019-03-24T08:25:24.955Z,9.00
2019-03-24T08:26:31.705Z,9.00
2019-03-24T08:27:38.453Z,9.10
2019-03-24T08:28:44.991Z,9.10
2019-03-24T08:29:51.536Z,9.00
2019-03-24T08:30:58.733Z,9.00
2019-03-24T08:32:05.302Z,9.00
2019-03-24T08:33:11.993Z,9.00
2019-03-24T08:34:18.679Z,9.00
2019-03-24T08:35:25.148Z,9.00
2019-03-24T08:36:31.954Z,9.10
2019-03-24T08:37:39.018Z,9.10
2019-03-24T08:38:45.716Z,9.10
2019-03-24T08:39:52.205Z,9.10
2019-03-24T08:40:58.810Z,9.00
2019-03-24T08:42:05.720Z,9.00
2019-03-24T08:43:12.385Z,9.20
2019-03-24T08:44:19.226Z,9.20
2019-03-24T08:45:29.945Z,9.20
2019-03-24T08:46:36.546Z,9.20
2019-03-24T08:47:43.153Z,9.30
2019-03-24T08:48:49.682Z,9.40
2019-03-24T08:49:56.543Z,9.50
2019-03-24T08:51:03.048Z,9.40
2019-03-24T08:52:09.589Z,9.30
2019-03-24T08:53:16.291Z,9.70
2019-03-24T08:54:22.985Z,9.70
2019-03-24T08:55:29.397Z,9.70
2019-03-24T08:56:36.043Z,9.60
2019-03-24T08:57:42.692Z,9.60
2019-03-24T08:58:49.278Z,9.70
2019-03-24T08:59:55.836Z,9.90
2019-03-24T09:01:02.609Z,10.00
2019-03-24T09:02:09.158Z,10.20
2019-03-24T09:03:15.686Z,10.40
2019-03-24T09:04:22.292Z,10.60
2019-03-24T09:05:29.072Z,10.70
2019-03-24T09:06:35.848Z,10.60
2019-03-24T09:07:42.609Z,10.60
2019-03-24T09:08:49.227Z,10.70
2019-03-24T09:09:55.960Z,10.70
2019-03-24T09:11:02.620Z,10.60
2019-03-24T09:12:09.301Z,10.70
2019-03-24T09:13:15.894Z,10.90
2019-03-24T09:14:22.456Z,10.90
2019-03-24T09:15:29.181Z,11.00
2019-03-24T09:16:35.753Z,11.10
2019-03-24T09:17:42.696Z,11.20
2019-03-24T09:18:52.835Z,11.40
2019-03-24T09:19:57.340Z,11.60
2019-03-24T09:21:04.146Z,11.80
2019-03-24T09:22:10.760Z,11.80
2019-03-24T09:23:17.449Z,11.80
2019-03-24T09:24:24.164Z,11.80
2019-03-24T09:25:30.847Z,11.80
2019-03-24T09:26:37.458Z,11.80
2019-03-24T09:27:44.095Z,11.60
2019-03-24T09:28:50.760Z,11.50
2019-03-24T09:29:57.473Z,11.50
2019-03-24T09:31:04.100Z,11.60
2019-03-24T09:32:10.806Z,11.40
2019-03-24T09:33:17.425Z,11.40
2019-03-24T09:34:24.346Z,11.50
2019-03-24T09:35:30.876Z,11.60
2019-03-24T09:36:37.574Z,11.60
2019-03-24T09:37:44.113Z,11.60
2019-03-24T09:38:50.764Z,11.80
2019-03-24T09:39:57.422Z,11.90
2019-03-24T09:41:04.067Z,11.80
2019-03-24T09:42:10.748Z,11.60
2019-03-24T09:43:17.501Z,11.70
2019-03-24T09:44:24.135Z,11.60
2019-03-24T09:45:31.419Z,11.30
2019-03-24T09:46:38.017Z,11.30
2019-03-24T09:47:44.734Z,11.60
2019-03-24T09:48:51.381Z,11.80
2019-03-24T09:49:58.109Z,11.90
2019-03-24T09:51:05.378Z,12.00
2019-03-24T09:52:11.965Z,12.20
2019-03-24T09:53:18.713Z,12.20
2019-03-24T09:54:25.308Z,12.20
2019-03-24T09:55:31.626Z,12.20
2019-03-24T09:56:38.260Z,12.50
2019-03-24T09:57:45.080Z,12.50
2019-03-24T09:58:51.625Z,12.40
2019-03-24T09:59:58.663Z,12.30
2019-03-24T10:01:06.066Z,12.30
2019-03-24T10:02:12.568Z,12.20
2019-03-24T10:03:19.003Z,12.60
2019-03-24T10:04:25.549Z,12.70
2019-03-24T10:05:32.121Z,13.30
2019-03-24T10:06:38.503Z,14.30
2019-03-24T10:07:44.857Z,14.70
2019-03-24T10:08:51.547Z,14.40
2019-03-24T10:09:58.193Z,13.90
2019-03-24T10:11:04.845Z,13.60
2019-03-24T10:12:11.542Z,13.40
2019-03-24T10:13:18.336Z,13.50
2019-03-24T10:14:24.917Z,13.40
2019-03-24T10:15:31.488Z,13.10
2019-03-24T10:16:37.916Z,12.90
2019-03-24T10:17:44.777Z,13.10
2019-03-24T10:18:51.274Z,13.10
2019-03-24T10:19:57.921Z,13.00
2019-03-24T10:21:04.466Z,13.00
2019-03-24T10:22:11.145Z,13.00
2019-03-24T10:23:17.897Z,13.00
2019-03-24T10:24:24.552Z,13.20
2019-03-24T10:25:31.115Z,13.30
2019-03-24T10:26:37.782Z,13.30
2019-03-24T10:27:44.470Z,13.00
2019-03-24T10:28:51.217Z,13.10
2019-03-24T10:29:57.761Z,13.20
2019-03-24T10:31:04.108Z,13.30
2019-03-24T10:32:10.868Z,13.40
2019-03-24T10:33:17.574Z,13.70
2019-03-24T10:34:24.178Z,13.90
2019-03-24T10:35:30.847Z,14.00
2019-03-24T10:36:37.526Z,14.70
2019-03-24T10:37:43.968Z,14.70
2019-03-24T10:38:50.644Z,14.60
2019-03-24T10:39:57.336Z,14.60
2019-03-24T10:41:04.055Z,14.60
2019-03-24T10:42:10.753Z,14.70
2019-03-24T10:43:17.096Z,14.80
2019-03-24T10:44:23.774Z,14.60
2019-03-24T10:45:30.447Z,14.60
2019-03-24T10:46:37.252Z,14.80
2019-03-24T10:47:43.806Z,14.70
2019-03-24T10:48:50.329Z,14.80
2019-03-24T10:49:56.962Z,14.90
2019-03-24T10:51:05.655Z,14.60
2019-03-24T10:52:12.223Z,14.20
2019-03-24T10:53:18.849Z,13.90
2019-03-24T10:54:25.347Z,13.90
2019-03-24T10:55:32.046Z,14.10
2019-03-24T10:56:38.799Z,14.00
2019-03-24T10:57:45.627Z,14.20
2019-03-24T10:58:52.453Z,14.20
2019-03-24T10:59:59.121Z,14.00
2019-03-24T11:01:07.140Z,13.90
2019-03-24T11:02:13.779Z,14.00
2019-03-24T11:03:20.573Z,14.20
2019-03-24T11:04:27.443Z,14.20
2019-03-24T11:05:34.175Z,13.80
2019-03-24T11:06:40.558Z,13.80
2019-03-24T11:07:47.247Z,13.60
2019-03-24T11:08:54.038Z,13.60
2019-03-24T11:10:00.718Z,13.80
2019-03-24T11:11:07.368Z,14.80
2019-03-24T11:12:14.064Z,15.90
2019-03-24T11:13:20.747Z,16.60
2019-03-24T11:14:27.352Z,17.90
2019-03-24T11:15:34.287Z,19.40
2019-03-24T11:16:41.019Z,20.00
2019-03-24T11:17:47.475Z,18.90
2019-03-24T11:18:53.810Z,18.00
2019-03-24T11:20:00.508Z,17.60
2019-03-24T11:21:08.911Z,16.80
2019-03-24T11:22:15.896Z,15.90
2019-03-24T11:23:22.651Z,15.50
2019-03-24T11:24:29.091Z,15.40
2019-03-24T11:25:35.898Z,15.70
2019-03-24T11:26:42.489Z,15.60
2019-03-24T11:27:49.024Z,16.20
2019-03-24T11:28:56.119Z,17.00
2019-03-24T11:30:02.477Z,16.60
2019-03-24T11:31:09.067Z,16.80
2019-03-24T11:32:15.673Z,17.60
2019-03-24T11:33:22.515Z,18.50
2019-03-24T11:34:29.133Z,18.80
2019-03-24T11:35:36.823Z,18.60
2019-03-24T11:36:43.735Z,18.30
2019-03-24T11:37:50.342Z,18.60
2019-03-24T11:38:59.062Z,19.40
2019-03-24T11:40:05.867Z,19.70
2019-03-24T11:41:12.652Z,20.10
2019-03-24T11:42:19.521Z,20.80
2019-03-24T11:43:26.119Z,21.90
2019-03-24T11:44:34.766Z,22.70
2019-03-24T11:45:41.227Z,23.90
2019-03-24T11:46:47.665Z,25.20
2019-03-24T11:47:54.279Z,25.60
2019-03-24T11:49:00.895Z,25.50
2019-03-24T11:50:07.957Z,25.90
2019-03-24T11:51:15.797Z,25.10
2019-03-24T11:52:22.382Z,24.50
2019-03-24T11:53:28.823Z,23.90
2019-03-24T11:54:35.562Z,24.00
2019-03-24T11:55:42.174Z,23.60
2019-03-24T11:56:48.858Z,23.70
2019-03-24T11:58:05.361Z,23.90
2019-03-24T11:59:03.899Z,23.40
2019-03-24T12:00:11.715Z,22.50
2019-03-24T12:01:18.257Z,22.00
2019-03-24T12:02:24.995Z,21.80
2019-03-24T12:03:31.658Z,21.90
2019-03-24T12:04:38.404Z,22.00
2019-03-24T12:05:45.107Z,21.80
2019-03-24T12:06:52.783Z,21.50
2019-03-24T12:07:59.418Z,22.30
2019-03-24T12:09:07.654Z,23.50
2019-03-24T12:10:14.675Z,23.60
2019-03-24T12:11:21.187Z,22.30
2019-03-24T12:12:27.848Z,21.70
2019-03-24T12:13:34.681Z,21.70
2019-03-24T12:14:41.532Z,22.30
2019-03-24T12:15:47.996Z,22.90
2019-03-24T12:16:54.860Z,23.40
2019-03-24T12:18:01.622Z,22.50
2019-03-24T12:19:08.415Z,22.60
2019-03-24T12:20:15.374Z,22.60
2019-03-24T12:21:22.261Z,23.40
2019-03-24T12:22:29.163Z,24.10
2019-03-24T12:23:36.200Z,25.10
2019-03-24T12:24:43.882Z,25.40
2019-03-24T12:25:53.629Z,26.30
2019-03-24T12:27:00.476Z,26.20
2019-03-24T12:28:07.182Z,26.10
2019-03-24T12:29:14.102Z,26.30
2019-03-24T12:30:20.923Z,26.90
2019-03-24T12:31:27.528Z,26.80
2019-03-24T12:32:34.394Z,26.00
2019-03-24T12:33:41.086Z,25.20
2019-03-24T12:34:47.797Z,25.00
2019-03-24T12:35:54.371Z,24.40
2019-03-24T12:37:01.076Z,25.30
2019-03-24T12:38:07.623Z,26.70
2019-03-24T12:39:14.191Z,26.50
2019-03-24T12:40:20.848Z,26.10
2019-03-24T12:41:27.746Z,25.00
2019-03-24T12:42:34.414Z,25.20
2019-03-24T12:43:41.420Z,25.50
2019-03-24T12:44:48.007Z,25.60
2019-03-24T12:45:54.958Z,25.30
2019-03-24T12:47:01.545Z,24.80
2019-03-24T12:48:08.369Z,24.90
2019-03-24T12:49:15.238Z,24.00
2019-03-24T12:50:30.873Z,23.40
2019-03-24T12:51:29.742Z,23.80
2019-03-24T12:52:36.500Z,24.40
2019-03-24T12:53:43.114Z,24.40
2019-03-24T12:54:50.257Z,25.00
2019-03-24T12:55:57.249Z,24.80
2019-03-24T12:57:04.257Z,23.90
2019-03-24T12:58:11.196Z,23.20
2019-03-24T12:59:17.966Z,23.30
2019-03-24T13:00:41.751Z,23.40
2019-03-24T13:01:48.526Z,23.70
2019-03-24T13:02:55.553Z,24.00
2019-03-24T13:04:02.383Z,24.50
2019-03-24T13:05:11.369Z,25.00
2019-03-24T13:06:18.238Z,25.40
2019-03-24T13:07:25.246Z,24.60
2019-03-24T13:08:32.088Z,24.50
2019-03-24T13:09:38.959Z,25.00
2019-03-24T13:10:46.586Z,24.70
2019-03-24T13:11:53.712Z,24.50
2019-03-24T13:13:00.865Z,24.00
2019-03-24T13:14:07.590Z,24.90
2019-03-24T13:15:15.528Z,25.40
2019-03-24T13:16:22.405Z,25.30
2019-03-24T13:17:29.212Z,25.00
2019-03-24T13:18:36.104Z,25.00
2019-03-24T13:19:42.615Z,24.20
2019-03-24T13:20:49.506Z,24.00
2019-03-24T13:21:56.073Z,23.70
2019-03-24T13:23:02.763Z,24.00
2019-03-24T13:24:09.480Z,24.70
2019-03-24T13:25:16.070Z,25.00
2019-03-24T13:26:22.902Z,25.30
2019-03-24T13:27:29.635Z,25.70
2019-03-24T13:28:37.566Z,26.50
2019-03-24T13:29:44.316Z,26.30
2019-03-24T13:30:51.304Z,25.70
2019-03-24T13:31:58.317Z,25.20
2019-03-24T13:33:05.176Z,25.20
2019-03-24T13:34:12.216Z,23.70
2019-03-24T13:35:19.056Z,22.30
2019-03-24T13:36:26.039Z,22.20
2019-03-24T13:37:32.807Z,22.40
2019-03-24T13:38:39.517Z,22.50
2019-03-24T13:39:46.243Z,22.40
2019-03-24T13:40:53.028Z,21.90
2019-03-24T13:41:59.819Z,20.80
2019-03-24T13:43:06.634Z,20.40
2019-03-24T13:44:13.142Z,20.10
2019-03-24T13:45:19.636Z,19.90
2019-03-24T13:46:26.549Z,19.40
2019-03-24T13:47:33.171Z,19.00
2019-03-24T13:48:40.241Z,18.70
2019-03-24T13:49:47.175Z,17.90
2019-03-24T13:50:54.093Z,18.10
2019-03-24T13:52:00.917Z,18.50
2019-03-24T13:53:07.896Z,19.00
2019-03-24T13:54:14.558Z,19.20
2019-03-24T13:55:21.497Z,19.70
2019-03-24T13:56:29.145Z,20.30
2019-03-24T13:57:35.820Z,20.30
2019-03-24T13:58:42.397Z,20.20
2019-03-24T13:59:49.044Z,19.70
2019-03-24T14:00:55.931Z,20.20
2019-03-24T14:02:02.948Z,20.20
2019-03-24T14:03:10.575Z,20.60
2019-03-24T14:04:17.599Z,20.40
2019-03-24T14:05:24.647Z,20.00
2019-03-24T14:06:31.517Z,19.40
2019-03-24T14:07:38.558Z,19.40
2019-03-24T14:08:46.544Z,19.20
2019-03-24T14:09:53.257Z,19.00
2019-03-24T14:11:00.127Z,18.60
2019-03-24T14:12:06.858Z,17.90
2019-03-24T14:13:13.485Z,17.60
2019-03-24T14:14:20.293Z,17.40
2019-03-24T14:15:28.261Z,17.50
2019-03-24T14:16:35.210Z,17.50
2019-03-24T14:17:41.972Z,18.00
2019-03-24T14:18:48.778Z,17.80
2019-03-24T14:19:55.717Z,18.40
2019-03-24T14:21:02.637Z,19.10
2019-03-24T14:22:09.839Z,19.50
2019-03-24T14:23:16.747Z,19.30
2019-03-24T14:24:23.983Z,19.30
2019-03-24T14:25:31.256Z,19.80
2019-03-24T14:26:38.166Z,20.00
2019-03-24T14:27:45.026Z,20.10
2019-03-24T14:28:51.987Z,19.70
2019-03-24T14:29:58.586Z,18.70
2019-03-24T14:31:06.737Z,18.70
2019-03-24T14:32:13.479Z,18.20
2019-03-24T14:33:20.276Z,17.90
2019-03-24T14:34:27.152Z,17.90
2019-03-24T14:35:34.106Z,17.70
2019-03-24T14:36:42.659Z,17.50
2019-03-24T14:37:49.725Z,17.30